createdAt,value
2023-03-26T00:03:20.233Z,648.00
2023-03-26T00:07:20.187Z,625.00
2023-03-26T00:11:20.171Z,642.00
2023-03-26T00:15:20.137Z,638.00
2023-03-26T00:19:20.094Z,640.00
2023-03-26T00:23:20.057Z,645.00
2023-03-26T00:27:20.005Z,649.00
2023-03-26T00:31:20.034Z,652.00
2023-03-26T00:35:19.961Z,653.00
2023-03-26T00:39:19.941Z,656.00
2023-03-26T00:43:19.883Z,653.00
2023-03-26T00:47:19.859Z,659.00
2023-03-26T00:51:19.837Z,652.00
2023-03-26T00:55:19.796Z,702.00
2023-03-26T00:59:19.747Z,659.00
2023-03-26T01:03:27.558Z,661.00
2023-03-26T01:07:20.675Z,645.00
2023-03-26T01:11:19.669Z,649.00
2023-03-26T01:15:19.609Z,650.00
2023-03-26T01:19:19.590Z,670.00
2023-03-26T01:23:19.649Z,664.00
2023-03-26T01:27:19.884Z,665.00
2023-03-26T01:31:20.078Z,699.00
2023-03-26T01:35:20.206Z,678.00
2023-03-26T01:39:20.244Z,665.00
2023-03-26T01:43:20.256Z,697.00
2023-03-26T01:47:20.392Z,715.00
2023-03-26T01:51:20.429Z,718.00
2023-03-26T01:55:20.456Z,711.00
2023-03-26T01:59:20.526Z,719.00
2023-03-26T02:03:20.800Z,678.00
2023-03-26T02:07:20.894Z,714.00
2023-03-26T02:11:21.587Z,683.00
2023-03-26T02:15:21.139Z,665.00
2023-03-26T02:19:21.418Z,685.00
2023-03-26T02:23:21.570Z,670.00
2023-03-26T02:27:21.740Z,711.00
2023-03-26T02:31:21.931Z,704.00
2023-03-26T02:35:22.070Z,701.00
2023-03-26T02:39:21.899Z,684.00
2023-03-26T02:43:21.959Z,659.00
2023-03-26T02:47:22.096Z,690.00
2023-03-26T02:51:22.075Z,676.00
2023-03-26T02:55:22.158Z,695.00
2023-03-26T02:59:22.234Z,672.00
2023-03-26T03:03:22.354Z,689.00
2023-03-26T03:07:22.497Z,664.00
2023-03-26T03:11:22.605Z,709.00
2023-03-26T03:15:22.819Z,672.00
2023-03-26T03:19:23.012Z,692.00
2023-03-26T03:23:23.183Z,662.00
2023-03-26T03:27:23.340Z,689.00
2023-03-26T03:31:23.597Z,705.00
2023-03-26T03:35:23.703Z,674.00
2023-03-26T03:39:23.779Z,717.00
2023-03-26T03:43:23.987Z,708.00
2023-03-26T03:47:24.229Z,700.00
2023-03-26T03:51:24.305Z,704.00
2023-03-26T03:55:24.539Z,719.00
2023-03-26T03:59:24.691Z,721.00
2023-03-26T04:03:33.335Z,697.00
2023-03-26T04:07:25.899Z,703.00
2023-03-26T04:13:34.440Z,500.00
2023-03-26T04:17:34.431Z,504.00
2023-03-26T04:21:34.343Z,513.00
2023-03-26T04:25:34.324Z,510.00
2023-03-26T04:29:34.320Z,519.00
2023-03-26T04:33:34.275Z,528.00
2023-03-26T04:37:34.214Z,528.00
2023-03-26T04:41:34.182Z,530.00
2023-03-26T04:45:34.139Z,521.00
2023-03-26T04:49:34.118Z,520.00
2023-03-26T04:53:34.100Z,532.00
2023-03-26T04:57:34.203Z,526.00
2023-03-26T05:01:34.343Z,526.00
2023-03-26T05:05:34.389Z,518.00
2023-03-26T05:09:34.610Z,522.00
2023-03-26T05:13:34.718Z,514.00
2023-03-26T05:17:34.887Z,526.00
2023-03-26T05:21:34.754Z,519.00
2023-03-26T05:25:34.785Z,512.00
2023-03-26T05:29:35.009Z,523.00
2023-03-26T05:33:35.225Z,519.00
2023-03-26T05:37:35.430Z,523.00
2023-03-26T05:41:35.602Z,507.00
2023-03-26T05:45:35.697Z,511.00
2023-03-26T05:49:35.723Z,519.00
2023-03-26T05:53:35.794Z,516.00
2023-03-26T05:57:35.859Z,502.00
2023-03-26T06:01:35.827Z,517.00
2023-03-26T06:05:35.882Z,502.00
2023-03-26T06:09:35.924Z,515.00
2023-03-26T06:13:35.895Z,520.00
2023-03-26T06:17:36.096Z,503.00
2023-03-26T06:21:36.245Z,511.00
2023-03-26T06:25:36.318Z,508.00
2023-03-26T06:29:36.356Z,505.00
2023-03-26T06:33:36.457Z,509.00
2023-03-26T06:37:36.536Z,502.00
2023-03-26T06:41:36.692Z,510.00
2023-03-26T06:45:36.661Z,503.00
2023-03-26T06:49:36.631Z,516.00
2023-03-26T06:53:36.571Z,519.00
2023-03-26T06:57:36.534Z,531.00
2023-03-26T07:01:36.583Z,536.00
2023-03-26T07:05:36.481Z,544.00
2023-03-26T07:09:36.451Z,551.00
2023-03-26T07:13:36.420Z,557.00
2023-03-26T07:17:36.365Z,593.00
2023-03-26T07:21:36.329Z,592.00
2023-03-26T07:25:36.320Z,610.00
2023-03-26T07:29:36.288Z,603.00
2023-03-26T07:33:36.229Z,585.00
2023-03-26T07:37:36.212Z,583.00
2023-03-26T07:41:36.168Z,571.00
2023-03-26T07:45:36.205Z,573.00
2023-03-26T07:49:36.224Z,593.00
2023-03-26T07:53:36.433Z,586.00
2023-03-26T07:57:36.526Z,590.00
2023-03-26T08:01:36.537Z,596.00
2023-03-26T08:05:36.672Z,583.00
2023-03-26T08:09:36.778Z,583.00
2023-03-26T08:13:36.753Z,578.00
2023-03-26T08:17:36.725Z,583.00
2023-03-26T08:21:36.699Z,564.00
2023-03-26T08:25:37.971Z,548.00
2023-03-26T08:29:36.621Z,562.00
2023-03-26T08:33:38.407Z,559.00
2023-03-26T08:37:36.521Z,556.00
2023-03-26T08:41:36.496Z,542.00
2023-03-26T08:45:36.478Z,550.00
2023-03-26T08:49:36.680Z,523.00
2023-03-26T08:53:36.811Z,525.00
2023-03-26T08:57:36.830Z,527.00
2023-03-26T09:01:36.937Z,528.00
2023-03-26T09:05:37.064Z,532.00
2023-03-26T09:09:37.129Z,543.00
2023-03-26T09:13:37.074Z,525.00
2023-03-26T09:17:37.050Z,529.00
2023-03-26T09:21:37.021Z,524.00
2023-03-26T09:25:36.956Z,516.00
2023-03-26T09:29:36.988Z,526.00
2023-03-26T09:33:36.912Z,515.00
2023-03-26T09:37:36.852Z,502.00
2023-03-26T09:41:37.845Z,505.00
2023-03-26T09:45:36.803Z,505.00
2023-03-26T09:49:36.864Z,506.00
2023-03-26T09:53:37.047Z,510.00
2023-03-26T09:57:37.085Z,510.00
2023-03-26T10:01:37.452Z,511.00
2023-03-26T10:05:37.335Z,517.00
2023-03-26T10:09:37.231Z,512.00
2023-03-26T10:13:37.155Z,509.00
2023-03-26T10:17:37.172Z,510.00
2023-03-26T10:21:37.081Z,503.00
2023-03-26T10:25:37.050Z,507.00
2023-03-26T10:29:37.038Z,508.00
2023-03-26T10:33:36.990Z,506.00
2023-03-26T10:37:36.953Z,505.00
2023-03-26T10:41:36.897Z,515.00
2023-03-26T10:45:36.870Z,511.00
2023-03-26T10:49:36.829Z,513.00
2023-03-26T10:53:36.789Z,518.00
2023-03-26T10:57:36.775Z,516.00
2023-03-26T11:01:36.790Z,509.00
2023-03-26T11:05:36.842Z,507.00
2023-03-26T11:09:36.739Z,512.00
2023-03-26T11:13:36.736Z,514.00
2023-03-26T11:17:40.033Z,517.00
2023-03-26T11:21:36.732Z,518.00
2023-03-26T11:25:36.687Z,528.00
2023-03-26T11:29:36.664Z,526.00
2023-03-26T11:33:36.625Z,518.00
2023-03-26T11:37:36.604Z,522.00
2023-03-26T11:41:36.558Z,516.00
2023-03-26T11:45:36.521Z,532.00
2023-03-26T11:49:36.474Z,525.00
2023-03-26T11:53:36.441Z,528.00
2023-03-26T11:57:36.433Z,532.00
2023-03-26T12:01:36.400Z,525.00
2023-03-26T12:05:36.340Z,527.00
2023-03-26T12:09:36.464Z,537.00
2023-03-26T12:13:36.533Z,521.00
2023-03-26T12:17:36.502Z,520.00
2023-03-26T12:21:36.704Z,537.00
2023-03-26T12:25:36.914Z,526.00
2023-03-26T12:29:36.867Z,525.00
2023-03-26T12:33:36.871Z,522.00
2023-03-26T12:37:36.847Z,512.00
2023-03-26T12:44:42.209Z,510.00
2023-03-26T12:45:37.793Z,510.00
2023-03-26T12:49:36.699Z,503.00
2023-03-26T12:53:36.649Z,518.00
2023-03-26T12:57:36.778Z,518.00
2023-03-26T13:01:36.983Z,510.00
2023-03-26T13:05:37.063Z,504.00
2023-03-26T13:09:37.200Z,511.00
2023-03-26T13:13:37.444Z,499.00
2023-03-26T13:17:37.642Z,500.00
2023-03-26T13:21:37.690Z,509.00
2023-03-26T13:25:37.856Z,501.00
2023-03-26T13:29:37.949Z,509.00
2023-03-26T13:33:38.085Z,505.00
2023-03-26T13:37:38.273Z,522.00
2023-03-26T13:41:38.399Z,552.00
2023-03-26T13:45:38.601Z,565.00
2023-03-26T13:49:38.718Z,550.00
2023-03-26T13:53:38.909Z,543.00
2023-03-26T13:57:39.051Z,561.00
2023-03-26T14:01:39.257Z,572.00
2023-03-26T14:05:39.437Z,552.00
2023-03-26T14:09:39.607Z,569.00
2023-03-26T14:13:39.770Z,590.00
2023-03-26T14:17:39.988Z,568.00
2023-03-26T14:21:40.192Z,582.00
2023-03-26T14:25:40.399Z,587.00
2023-03-26T14:29:40.598Z,587.00
2023-03-26T14:33:41.557Z,573.00
2023-03-26T14:37:40.543Z,588.00
2023-03-26T14:41:40.458Z,589.00
2023-03-26T14:45:40.668Z,604.00
2023-03-26T14:49:40.646Z,635.00
2023-03-26T14:53:40.643Z,598.00
2023-03-26T14:57:40.564Z,597.00
2023-03-26T15:01:40.582Z,585.00
2023-03-26T15:05:40.501Z,612.00
2023-03-26T15:09:40.470Z,583.00
2023-03-26T15:13:40.409Z,591.00
2023-03-26T15:17:40.441Z,585.00
2023-03-26T15:21:40.355Z,599.00
2023-03-26T15:25:40.325Z,611.00
2023-03-26T15:29:40.289Z,603.00
2023-03-26T15:33:40.241Z,604.00
2023-03-26T15:37:40.429Z,610.00
2023-03-26T15:41:40.589Z,611.00
2023-03-26T15:45:40.639Z,610.00
2023-03-26T15:49:40.654Z,600.00
2023-03-26T15:53:40.537Z,612.00
2023-03-26T15:57:40.521Z,629.00
2023-03-26T16:01:40.521Z,622.00
2023-03-26T16:05:40.415Z,639.00
2023-03-26T16:09:40.395Z,633.00
2023-03-26T16:13:40.340Z,635.00
2023-03-26T16:17:40.356Z,608.00
2023-03-26T16:21:40.279Z,634.00
2023-03-26T16:25:40.280Z,617.00
2023-03-26T16:29:40.206Z,633.00
2023-03-26T16:33:40.181Z,634.00
2023-03-26T16:37:40.164Z,636.00
2023-03-26T16:41:40.121Z,623.00
2023-03-26T16:45:40.115Z,643.00
2023-03-26T16:49:40.009Z,662.00
2023-03-26T16:53:39.999Z,689.00
2023-03-26T16:57:39.979Z,649.00
2023-03-26T17:01:39.958Z,662.00
2023-03-26T17:05:40.023Z,679.00
2023-03-26T17:09:40.073Z,665.00
2023-03-26T17:13:40.171Z,668.00
2023-03-26T17:17:40.273Z,651.00
2023-03-26T17:21:45.910Z,686.00
2023-03-26T17:25:41.313Z,709.00
2023-03-26T17:29:40.276Z,700.00
2023-03-26T17:33:40.228Z,715.00
2023-03-26T17:37:40.198Z,719.00
2023-03-26T17:41:40.374Z,728.00
2023-03-26T17:45:40.530Z,738.00
2023-03-26T17:49:40.598Z,780.00
2023-03-26T17:53:40.677Z,743.00
2023-03-26T17:57:40.773Z,787.00
2023-03-26T18:01:40.899Z,788.00
2023-03-26T18:05:40.993Z,795.00
2023-03-26T18:09:41.121Z,781.00
2023-03-26T18:13:41.259Z,775.00
2023-03-26T18:17:41.429Z,797.00
2023-03-26T18:21:41.496Z,783.00
2023-03-26T18:25:41.509Z,782.00
2023-03-26T18:29:41.594Z,761.00
2023-03-26T18:33:41.724Z,737.00
2023-03-26T18:37:41.872Z,719.00
2023-03-26T18:41:42.037Z,711.00
2023-03-26T18:45:42.093Z,723.00
2023-03-26T18:49:42.199Z,698.00
2023-03-26T18:53:42.366Z,704.00
2023-03-26T18:57:42.506Z,665.00
2023-03-26T19:01:45.457Z,670.00
2023-03-26T19:05:42.575Z,678.00
2023-03-26T19:09:42.564Z,666.00
2023-03-26T19:13:42.501Z,676.00
2023-03-26T19:17:42.586Z,662.00
2023-03-26T19:21:42.423Z,658.00
2023-03-26T19:25:42.516Z,648.00
2023-03-26T19:29:42.583Z,639.00
2023-03-26T19:33:42.623Z,660.00
2023-03-26T19:37:42.745Z,656.00
2023-03-26T19:41:42.872Z,663.00
2023-03-26T19:46:00.041Z,667.00
2023-03-26T19:49:43.961Z,661.00
2023-03-26T19:53:42.947Z,646.00
2023-03-26T19:57:42.871Z,655.00
2023-03-26T20:01:43.020Z,647.00
2023-03-26T20:05:42.824Z,644.00
2023-03-26T20:09:42.792Z,632.00
2023-03-26T20:13:42.863Z,638.00
2023-03-26T20:17:43.106Z,638.00
2023-03-26T20:21:43.172Z,626.00
2023-03-26T20:25:43.198Z,630.00
2023-03-26T20:29:43.329Z,619.00
2023-03-26T20:33:43.317Z,631.00
2023-03-26T20:37:43.402Z,601.00
2023-03-26T20:41:43.406Z,609.00
2023-03-26T20:45:43.528Z,609.00
2023-03-26T20:49:43.612Z,608.00
2023-03-26T20:53:43.663Z,591.00
2023-03-26T20:57:43.711Z,583.00
2023-03-26T21:01:43.851Z,585.00
2023-03-26T21:05:44.026Z,592.00
2023-03-26T21:09:44.088Z,579.00
2023-03-26T21:13:44.034Z,588.00
2023-03-26T21:17:44.124Z,587.00
2023-03-26T21:21:44.124Z,584.00
2023-03-26T21:25:44.218Z,590.00
2023-03-26T21:29:44.415Z,580.00
2023-03-26T21:33:44.531Z,571.00
2023-03-26T21:37:44.545Z,594.00
2023-03-26T21:41:44.535Z,584.00
2023-03-26T21:45:44.581Z,569.00
2023-03-26T21:49:44.571Z,553.00
2023-03-26T21:53:44.799Z,570.00
2023-03-26T21:57:44.815Z,585.00
2023-03-26T22:01:45.098Z,577.00
2023-03-26T22:05:44.796Z,578.00
2023-03-26T22:09:44.848Z,589.00
2023-03-26T22:13:44.849Z,573.00
2023-03-26T22:17:44.881Z,575.00
2023-03-26T22:21:44.867Z,575.00
2023-03-26T22:25:44.903Z,562.00
2023-03-26T22:29:44.935Z,566.00
2023-03-26T22:33:45.065Z,566.00
2023-03-26T22:37:45.177Z,554.00
2023-03-26T22:41:45.340Z,537.00
2023-03-26T22:45:45.480Z,527.00
2023-03-26T22:49:45.571Z,536.00
2023-03-26T22:53:45.687Z,518.00
2023-03-26T22:57:45.801Z,535.00
2023-03-26T23:01:45.995Z,548.00
2023-03-26T23:05:45.974Z,548.00
2023-03-26T23:09:46.146Z,538.00
2023-03-26T23:13:46.142Z,530.00
2023-03-26T23:17:46.268Z,543.00
2023-03-26T23:21:47.190Z,546.00
2023-03-26T23:25:46.133Z,538.00
2023-03-26T23:29:46.226Z,533.00
2023-03-26T23:33:46.695Z,537.00
2023-03-26T23:37:46.302Z,538.00
2023-03-26T23:41:46.328Z,536.00
2023-03-26T23:45:46.301Z,520.00
2023-03-26T23:49:46.441Z,519.00
2023-03-26T23:53:46.422Z,525.00
2023-03-26T23:57:46.405Z,529.00
